createdAt,value
2023-02-09T00:00:37.291Z,-0.90
2023-02-09T00:03:26.098Z,-0.90
2023-02-09T00:06:17.156Z,-0.90
2023-02-09T00:09:07.226Z,-0.90
2023-02-09T00:12:13.539Z,-0.80
2023-02-09T00:15:02.612Z,-0.80
2023-02-09T00:17:51.349Z,-1.00
2023-02-09T00:20:40.144Z,-1.10
2023-02-09T00:23:30.083Z,-1.10
2023-02-09T00:26:20.183Z,-1.10
2023-02-09T00:29:09.778Z,-1.00
2023-02-09T00:31:58.733Z,-1.20
2023-02-09T00:34:47.658Z,-1.10
2023-02-09T00:37:37.617Z,-1.10
2023-02-09T00:40:26.445Z,-1.00
2023-02-09T00:43:16.720Z,-1.20
2023-02-09T00:46:05.815Z,-1.20
2023-02-09T00:48:54.891Z,-1.10
2023-02-09T00:51:44.314Z,-1.20
2023-02-09T00:54:33.134Z,-1.20
2023-02-09T00:57:21.880Z,-1.20
2023-02-09T01:00:16.263Z,-1.20
2023-02-09T01:03:05.551Z,-1.20
2023-02-09T01:05:54.365Z,-1.30
2023-02-09T01:08:43.691Z,-1.20
2023-02-09T01:11:33.728Z,-1.20
2023-02-09T01:14:22.380Z,-1.20
2023-02-09T01:17:12.562Z,-1.00
2023-02-09T01:20:01.736Z,-1.20
2023-02-09T01:22:50.692Z,-1.20
2023-02-09T01:25:39.402Z,-1.20
2023-02-09T01:28:28.087Z,-1.20
2023-02-09T01:31:23.033Z,-1.20
2023-02-09T01:34:15.568Z,-1.20
2023-02-09T01:37:04.272Z,-1.20
2023-02-09T01:39:52.912Z,-1.20
2023-02-09T01:42:41.802Z,-1.30
2023-02-09T01:45:35.130Z,-1.20
2023-02-09T01:48:28.321Z,-1.30
2023-02-09T01:51:19.129Z,-1.30
2023-02-09T01:54:10.942Z,-1.30
2023-02-09T01:57:04.045Z,-1.30
2023-02-09T01:59:57.478Z,-1.30
2023-02-09T02:02:49.108Z,-1.30
2023-02-09T02:05:41.337Z,-1.30
2023-02-09T02:08:35.197Z,-1.30
2023-02-09T02:11:27.724Z,-1.30
2023-02-09T02:14:30.173Z,-1.40
2023-02-09T02:17:33.400Z,-1.40
2023-02-09T02:20:47.631Z,-1.40
2023-02-09T02:23:48.593Z,-1.50
2023-02-09T02:26:55.698Z,-1.50
2023-02-09T02:30:13.658Z,-1.40
2023-02-09T02:33:16.145Z,-1.50
2023-02-09T02:36:11.618Z,-1.50
2023-02-09T02:39:10.860Z,-1.60
2023-02-09T02:42:20.968Z,-1.50
2023-02-09T02:45:15.263Z,-1.50
2023-02-09T02:48:18.544Z,-1.50
2023-02-09T02:51:11.476Z,-1.50
2023-02-09T02:54:04.099Z,-1.50
2023-02-09T02:56:56.093Z,-1.40
2023-02-09T02:59:49.887Z,-1.40
2023-02-09T03:02:42.212Z,-1.50
2023-02-09T03:05:33.063Z,-1.60
2023-02-09T03:08:21.737Z,-1.70
2023-02-09T03:11:12.602Z,-1.70
2023-02-09T03:14:23.432Z,-1.70
2023-02-09T03:17:25.433Z,-1.80
2023-02-09T03:20:22.654Z,-1.70
2023-02-09T03:23:21.320Z,-1.80
2023-02-09T03:26:15.140Z,-1.90
2023-02-09T03:29:04.582Z,-1.80
2023-02-09T03:31:53.510Z,-1.80
2023-02-09T03:34:42.724Z,-1.60
2023-02-09T03:37:31.435Z,-1.50
2023-02-09T03:40:21.630Z,-1.50
2023-02-09T03:43:11.321Z,-1.60
2023-02-09T03:46:00.123Z,-1.60
2023-02-09T03:48:50.203Z,-1.80
2023-02-09T03:51:39.150Z,-1.60
2023-02-09T03:54:28.228Z,-1.50
2023-02-09T03:57:18.510Z,-1.50
2023-02-09T04:00:08.475Z,-1.50
2023-02-09T04:03:06.374Z,-1.50
2023-02-09T04:05:55.022Z,-1.50
2023-02-09T04:08:44.627Z,-1.50
2023-02-09T04:11:33.324Z,-1.50
2023-02-09T04:14:23.450Z,-1.70
2023-02-09T04:17:12.028Z,-1.70
2023-02-09T04:20:01.164Z,-1.70
2023-02-09T04:22:49.995Z,-1.70
2023-02-09T04:25:39.103Z,-1.70
2023-02-09T04:28:27.898Z,-1.70
2023-02-09T04:31:18.514Z,-1.60
2023-02-09T04:34:07.441Z,-1.60
2023-02-09T04:36:56.132Z,-1.50
2023-02-09T04:39:44.781Z,-1.70
2023-02-09T04:42:33.507Z,-1.80
2023-02-09T04:45:22.358Z,-1.70
2023-02-09T04:48:14.635Z,-1.70
2023-02-09T04:51:03.496Z,-1.70
2023-02-09T04:53:52.513Z,-1.70
2023-02-09T04:56:41.268Z,-1.60
2023-02-09T04:59:35.016Z,-1.70
2023-02-09T05:02:23.688Z,-1.80
2023-02-09T05:05:13.740Z,-1.50
2023-02-09T05:08:02.566Z,-1.60
2023-02-09T05:10:52.210Z,-1.70
2023-02-09T05:13:40.984Z,-1.90
2023-02-09T05:16:30.096Z,-1.80
2023-02-09T05:19:18.745Z,-1.70
2023-02-09T05:22:08.718Z,-1.90
2023-02-09T05:24:57.385Z,-1.90
2023-02-09T05:27:46.144Z,-1.90
2023-02-09T05:30:34.819Z,-1.80
2023-02-09T05:33:24.330Z,-1.80
2023-02-09T05:36:13.388Z,-1.70
2023-02-09T05:39:03.455Z,-1.80
2023-02-09T05:42:09.994Z,-1.90
2023-02-09T05:44:58.833Z,-2.00
2023-02-09T05:47:47.604Z,-2.00
2023-02-09T05:50:36.898Z,-1.90
2023-02-09T05:53:28.831Z,-2.00
2023-02-09T05:56:18.907Z,-1.90
2023-02-09T05:59:07.868Z,-2.00
2023-02-09T06:01:56.654Z,-1.90
2023-02-09T06:04:45.475Z,-2.00
2023-02-09T06:07:34.333Z,-2.00
2023-02-09T06:10:23.507Z,-1.90
2023-02-09T06:13:13.903Z,-1.90
2023-02-09T06:16:02.914Z,-1.90
2023-02-09T06:18:51.508Z,-1.80
2023-02-09T06:21:40.247Z,-2.00
2023-02-09T06:24:29.124Z,-2.00
2023-02-09T06:27:18.202Z,-2.20
2023-02-09T06:30:10.260Z,-2.10
2023-02-09T06:32:59.028Z,-2.10
2023-02-09T06:35:48.011Z,-2.20
2023-02-09T06:38:38.743Z,-2.10
2023-02-09T06:41:27.819Z,-2.10
2023-02-09T06:44:16.690Z,-2.00
2023-02-09T06:47:06.912Z,-2.10
2023-02-09T06:49:55.635Z,-2.10
2023-02-09T06:52:44.743Z,-2.10
2023-02-09T06:55:34.722Z,-2.30
2023-02-09T06:58:24.341Z,-2.30
2023-02-09T07:01:15.824Z,-2.20
2023-02-09T07:04:06.013Z,-2.30
2023-02-09T07:06:54.664Z,-2.20
2023-02-09T07:09:43.288Z,-2.10
2023-02-09T07:12:32.409Z,-1.90
2023-02-09T07:15:21.073Z,-1.80
2023-02-09T07:18:09.658Z,-2.00
2023-02-09T07:21:01.843Z,-2.00
2023-02-09T07:23:50.873Z,-1.90
2023-02-09T07:26:39.573Z,-1.90
2023-02-09T07:29:28.269Z,-2.00
2023-02-09T07:32:18.054Z,-2.00
2023-02-09T07:35:07.430Z,-2.00
2023-02-09T07:37:57.506Z,-2.10
2023-02-09T07:40:47.349Z,-2.20
2023-02-09T07:43:36.307Z,-2.10
2023-02-09T07:46:25.799Z,-1.90
2023-02-09T07:49:14.508Z,-1.80
2023-02-09T07:52:03.249Z,-1.70
2023-02-09T07:54:53.367Z,-1.80
2023-02-09T07:57:42.063Z,-2.10
2023-02-09T08:00:31.100Z,-2.10
2023-02-09T08:03:23.466Z,-1.90
2023-02-09T08:06:19.547Z,-1.70
2023-02-09T08:09:09.890Z,-1.50
2023-02-09T08:12:05.055Z,-1.40
2023-02-09T08:14:53.889Z,-1.30
2023-02-09T08:17:42.701Z,-1.30
2023-02-09T08:20:33.282Z,-1.40
2023-02-09T08:23:26.506Z,-1.40
2023-02-09T08:26:16.246Z,-1.30
2023-02-09T08:29:07.388Z,-1.20
2023-02-09T08:31:56.099Z,-1.20
2023-02-09T08:34:44.839Z,-1.20
2023-02-09T08:37:34.068Z,-1.30
2023-02-09T08:40:22.973Z,-1.20
2023-02-09T08:43:12.018Z,-1.10
2023-02-09T08:46:05.920Z,-1.10
2023-02-09T08:48:54.640Z,-1.00
2023-02-09T08:51:43.314Z,-0.90
2023-02-09T08:54:32.422Z,-1.00
2023-02-09T08:57:21.038Z,-0.90
2023-02-09T09:00:10.696Z,-0.80
2023-02-09T09:03:04.769Z,-0.70
2023-02-09T09:05:56.704Z,-0.60
2023-02-09T09:08:45.350Z,-0.50
2023-02-09T09:11:34.142Z,-0.50
2023-02-09T09:14:22.977Z,-0.40
2023-02-09T09:17:12.159Z,-0.40
2023-02-09T09:20:02.452Z,-0.40
2023-02-09T09:22:51.335Z,-0.30
2023-02-09T09:25:40.535Z,-0.20
2023-02-09T09:28:29.352Z,0.00
2023-02-09T09:31:19.716Z,0.00
2023-02-09T09:34:08.540Z,0.10
2023-02-09T09:36:58.872Z,0.20
2023-02-09T09:39:47.569Z,0.30
2023-02-09T09:42:39.411Z,0.30
2023-02-09T09:45:30.844Z,0.40
2023-02-09T09:48:24.775Z,0.50
2023-02-09T09:51:17.469Z,0.60
2023-02-09T09:54:12.591Z,0.60
2023-02-09T09:57:01.704Z,0.70
2023-02-09T09:59:50.701Z,0.80
2023-02-09T10:02:40.031Z,0.90
2023-02-09T10:05:30.226Z,1.00
2023-02-09T10:08:25.057Z,1.10
2023-02-09T10:11:17.169Z,1.10
2023-02-09T10:14:06.018Z,1.20
2023-02-09T10:16:54.842Z,1.30
2023-02-09T10:19:43.688Z,1.40
2023-02-09T10:22:32.549Z,1.50
2023-02-09T10:25:39.643Z,1.60
2023-02-09T10:28:32.364Z,1.70
2023-02-09T10:31:26.065Z,1.70
2023-02-09T10:34:17.054Z,1.80
2023-02-09T10:37:20.821Z,1.80
2023-02-09T10:40:16.448Z,1.90
2023-02-09T10:43:08.360Z,1.90
2023-02-09T10:46:01.146Z,1.90
2023-02-09T10:48:49.816Z,2.00
2023-02-09T10:51:38.500Z,2.00
2023-02-09T10:54:28.023Z,1.90
2023-02-09T10:57:28.966Z,1.90
2023-02-09T11:00:30.248Z,1.90
2023-02-09T11:03:22.213Z,2.00
2023-02-09T11:06:17.374Z,1.90
2023-02-09T11:09:12.210Z,2.00
2023-02-09T11:12:01.620Z,2.00
2023-02-09T11:14:50.584Z,2.10
2023-02-09T11:17:45.758Z,2.10
2023-02-09T11:20:40.698Z,2.10
2023-02-09T11:23:40.058Z,2.10
2023-02-09T11:26:39.508Z,2.30
2023-02-09T11:29:34.001Z,2.40
2023-02-09T11:32:28.152Z,2.30
2023-02-09T11:35:20.041Z,2.40
2023-02-09T11:38:16.663Z,2.50
2023-02-09T11:41:30.440Z,2.60
2023-02-09T11:44:27.748Z,2.60
2023-02-09T11:47:22.062Z,2.70
2023-02-09T11:50:17.135Z,2.80
2023-02-09T11:53:14.862Z,2.90
2023-02-09T11:56:06.010Z,2.90
2023-02-09T11:59:00.265Z,3.10
2023-02-09T12:01:53.083Z,3.20
2023-02-09T12:04:46.529Z,3.10
2023-02-09T12:07:42.002Z,3.00
2023-02-09T12:10:38.278Z,3.00
2023-02-09T12:13:39.504Z,3.10
2023-02-09T12:16:34.907Z,3.00
2023-02-09T12:19:34.782Z,2.90
2023-02-09T12:22:49.518Z,2.90
2023-02-09T12:25:51.409Z,3.00
2023-02-09T12:28:43.845Z,3.00
2023-02-09T12:31:53.560Z,3.10
2023-02-09T12:34:44.428Z,3.10
2023-02-09T12:37:33.202Z,3.10
2023-02-09T12:40:24.904Z,3.20
2023-02-09T12:43:28.271Z,3.30
2023-02-09T12:46:27.664Z,3.60
2023-02-09T12:49:32.509Z,3.80
2023-02-09T12:52:21.256Z,3.90
2023-02-09T12:55:20.944Z,3.90
2023-02-09T12:58:54.361Z,3.80
2023-02-09T13:02:13.364Z,3.70
2023-02-09T13:05:05.008Z,3.80
2023-02-09T13:07:59.178Z,3.90
2023-02-09T13:10:57.161Z,4.00
2023-02-09T13:13:53.861Z,3.90
2023-02-09T13:17:24.781Z,4.00
2023-02-09T13:20:37.501Z,3.90
2023-02-09T13:23:34.782Z,4.00
2023-02-09T13:29:35.053Z,4.00
2023-02-09T13:32:41.374Z,3.90
2023-02-09T13:35:34.718Z,3.90
2023-02-09T13:38:24.248Z,3.90
2023-02-09T13:41:26.956Z,3.90
2023-02-09T13:44:24.478Z,3.80
2023-02-09T13:47:16.678Z,3.80
2023-02-09T13:50:14.496Z,3.80
2023-02-09T13:53:10.542Z,3.80
2023-02-09T13:56:01.627Z,3.90
2023-02-09T13:58:50.678Z,3.90
2023-02-09T14:01:43.355Z,3.90
2023-02-09T14:04:36.149Z,3.90
2023-02-09T14:07:28.533Z,3.80
2023-02-09T14:10:19.800Z,3.80
2023-02-09T14:13:19.585Z,3.90
2023-02-09T14:16:09.270Z,3.90
2023-02-09T14:18:59.062Z,3.90
2023-02-09T14:21:49.166Z,3.90
2023-02-09T14:24:44.902Z,3.80
2023-02-09T14:27:36.310Z,3.90
2023-02-09T14:30:27.583Z,3.80
2023-02-09T14:33:24.963Z,3.80
2023-02-09T14:36:23.788Z,3.80
2023-02-09T14:39:17.346Z,3.80
2023-02-09T14:42:19.204Z,3.80
2023-02-09T14:45:30.996Z,3.80
2023-02-09T14:48:21.515Z,3.80
2023-02-09T14:51:14.675Z,3.70
2023-02-09T14:54:03.491Z,3.70
2023-02-09T14:56:54.700Z,3.70
2023-02-09T14:59:43.417Z,3.60
2023-02-09T15:02:32.708Z,3.70
2023-02-09T15:05:22.365Z,3.70
2023-02-09T15:08:15.580Z,3.70
2023-02-09T15:11:27.456Z,3.70
2023-02-09T15:14:18.136Z,3.70
2023-02-09T15:17:18.311Z,3.60
2023-02-09T15:20:07.962Z,3.60
2023-02-09T15:22:57.525Z,3.60
2023-02-09T15:25:47.312Z,3.60
2023-02-09T15:28:36.399Z,3.60
2023-02-09T15:31:26.518Z,3.60
2023-02-09T15:34:15.653Z,3.60
2023-02-09T15:37:04.357Z,3.50
2023-02-09T15:39:59.125Z,3.50
2023-02-09T15:43:05.042Z,3.40
2023-02-09T15:46:11.252Z,3.40
2023-02-09T15:49:02.235Z,3.40
2023-02-09T15:51:51.520Z,3.40
2023-02-09T15:54:41.380Z,3.40
2023-02-09T15:57:30.161Z,3.40
2023-02-09T16:00:20.563Z,3.30
2023-02-09T16:03:15.581Z,3.20
2023-02-09T16:06:13.006Z,3.30
2023-02-09T16:09:03.903Z,3.30
2023-02-09T16:11:52.847Z,3.20
2023-02-09T16:14:41.475Z,3.20
2023-02-09T16:17:30.141Z,3.20
2023-02-09T16:20:20.263Z,3.20
2023-02-09T16:23:20.599Z,3.20
2023-02-09T16:26:10.762Z,3.30
2023-02-09T16:28:59.522Z,3.20
2023-02-09T16:31:48.981Z,3.20
2023-02-09T16:34:37.969Z,3.20
2023-02-09T16:37:30.997Z,3.20
2023-02-09T16:40:26.253Z,3.10
2023-02-09T16:43:15.532Z,3.20
2023-02-09T16:46:05.888Z,3.10
2023-02-09T16:48:55.608Z,3.00
2023-02-09T16:51:44.369Z,3.10
2023-02-09T16:54:40.989Z,3.10
2023-02-09T16:57:31.149Z,3.00
2023-02-09T17:00:20.222Z,3.00
2023-02-09T17:03:15.664Z,3.00
2023-02-09T17:06:04.942Z,2.90
2023-02-09T17:08:56.739Z,2.90
2023-02-09T17:11:45.732Z,2.90
2023-02-09T17:14:36.079Z,2.90
2023-02-09T17:17:24.909Z,2.90
2023-02-09T17:20:20.301Z,2.90
2023-02-09T17:23:11.765Z,2.80
2023-02-09T17:26:01.000Z,2.80
2023-02-09T17:28:49.709Z,2.70
2023-02-09T17:31:52.735Z,2.80
2023-02-09T17:34:43.288Z,2.70
2023-02-09T17:37:32.153Z,2.80
2023-02-09T17:40:23.108Z,2.70
2023-02-09T17:43:11.978Z,2.70
2023-02-09T17:46:00.883Z,2.60
2023-02-09T17:48:51.019Z,2.60
2023-02-09T17:51:42.140Z,2.50
2023-02-09T17:54:32.591Z,2.50
2023-02-09T17:57:22.238Z,2.40
2023-02-09T18:00:12.485Z,2.40
2023-02-09T18:03:01.279Z,2.40
2023-02-09T18:05:54.510Z,2.40
2023-02-09T18:08:43.266Z,2.40
2023-02-09T18:12:02.238Z,2.30
2023-02-09T18:14:51.159Z,2.30
2023-02-09T18:17:42.458Z,2.30
2023-02-09T18:20:33.634Z,2.20
2023-02-09T18:23:23.867Z,2.20
2023-02-09T18:26:12.637Z,2.20
2023-02-09T18:29:01.336Z,2.20
2023-02-09T18:31:50.634Z,2.20
2023-02-09T18:34:39.416Z,2.10
2023-02-09T18:37:28.299Z,2.00
2023-02-09T18:40:18.874Z,2.10
2023-02-09T18:43:09.153Z,2.10
2023-02-09T18:45:58.644Z,2.10
2023-02-09T18:48:47.344Z,2.20
2023-02-09T18:51:36.005Z,2.10
2023-02-09T18:54:24.672Z,2.00
2023-02-09T18:57:14.850Z,2.00
2023-02-09T19:00:04.177Z,2.00
2023-02-09T19:02:54.448Z,2.00
2023-02-09T19:05:44.071Z,2.10
2023-02-09T19:08:36.942Z,2.00
2023-02-09T19:11:25.896Z,1.90
2023-02-09T19:14:33.143Z,2.00
2023-02-09T19:17:23.501Z,1.90
2023-02-09T19:20:14.598Z,1.90
2023-02-09T19:23:03.918Z,1.90
2023-02-09T19:26:03.159Z,1.90
2023-02-09T19:28:52.275Z,1.90
2023-02-09T19:31:42.991Z,1.70
2023-02-09T19:34:32.530Z,1.80
2023-02-09T19:37:22.520Z,1.70
2023-02-09T19:40:20.992Z,1.80
2023-02-09T19:43:09.683Z,1.80
2023-02-09T19:45:59.171Z,1.80
2023-02-09T19:48:49.695Z,1.80
2023-02-09T19:51:39.008Z,1.70
2023-02-09T19:54:27.909Z,1.60
2023-02-09T19:57:16.745Z,1.70
2023-02-09T20:00:06.338Z,1.70
2023-02-09T20:02:57.315Z,1.60
2023-02-09T20:05:48.173Z,1.60
2023-02-09T20:08:38.142Z,1.60
2023-02-09T20:11:26.921Z,1.50
2023-02-09T20:14:15.681Z,1.40
2023-02-09T20:17:04.406Z,1.50
2023-02-09T20:19:53.866Z,1.50
2023-02-09T20:22:43.979Z,1.60
2023-02-09T20:25:32.649Z,1.70
2023-02-09T20:28:21.863Z,1.60
2023-02-09T20:31:11.484Z,1.60
2023-02-09T20:34:00.493Z,1.60
2023-02-09T20:36:50.681Z,1.60
2023-02-09T20:39:40.814Z,1.60
2023-02-09T20:42:46.787Z,1.60
2023-02-09T20:45:52.836Z,1.60
2023-02-09T20:48:41.603Z,1.40
2023-02-09T20:51:30.867Z,1.50
2023-02-09T20:54:19.864Z,1.50
2023-02-09T20:57:10.415Z,1.50
2023-02-09T20:59:59.845Z,1.50
2023-02-09T21:02:49.158Z,1.50
2023-02-09T21:05:37.930Z,1.50
2023-02-09T21:08:26.582Z,1.50
2023-02-09T21:11:16.272Z,1.50
2023-02-09T21:14:06.598Z,1.50
2023-02-09T21:16:56.471Z,1.50
2023-02-09T21:19:45.340Z,1.50
2023-02-09T21:22:34.098Z,1.60
2023-02-09T21:25:22.736Z,1.60
2023-02-09T21:28:11.852Z,1.50
2023-02-09T21:31:02.292Z,1.50
2023-02-09T21:33:50.980Z,1.50
2023-02-09T21:36:40.255Z,1.50
2023-02-09T21:39:29.176Z,1.50
2023-02-09T21:42:31.411Z,1.60
2023-02-09T21:45:20.392Z,1.60
2023-02-09T21:48:14.377Z,1.50
2023-02-09T21:51:04.046Z,1.60
2023-02-09T21:53:56.864Z,1.60
2023-02-09T21:56:45.819Z,1.70
2023-02-09T21:59:35.393Z,1.70
2023-02-09T22:02:24.169Z,1.60
2023-02-09T22:05:14.430Z,1.60
2023-02-09T22:08:03.234Z,1.70
2023-02-09T22:10:52.102Z,1.70
2023-02-09T22:13:40.967Z,1.70
2023-02-09T22:16:30.252Z,1.80
2023-02-09T22:19:18.841Z,1.80
2023-02-09T22:22:08.970Z,1.80
2023-02-09T22:24:59.152Z,1.80
2023-02-09T22:27:47.803Z,1.70
2023-02-09T22:30:36.493Z,1.50
2023-02-09T22:33:25.591Z,1.60
2023-02-09T22:36:15.860Z,1.70
2023-02-09T22:39:07.025Z,1.70
2023-02-09T22:41:58.357Z,1.80
2023-02-09T22:44:47.042Z,1.70
2023-02-09T22:47:36.062Z,1.70
2023-02-09T22:50:24.766Z,1.70
2023-02-09T22:53:13.421Z,1.70
2023-02-09T22:56:04.953Z,1.70
2023-02-09T22:58:54.694Z,1.60
2023-02-09T23:01:43.787Z,1.60
2023-02-09T23:04:33.463Z,1.60
2023-02-09T23:07:22.206Z,1.60
2023-02-09T23:10:11.115Z,1.70
2023-02-09T23:13:01.182Z,1.70
2023-02-09T23:15:50.149Z,1.70
2023-02-09T23:18:39.869Z,1.70
2023-02-09T23:21:32.224Z,1.80
2023-02-09T23:24:24.564Z,1.70
2023-02-09T23:27:13.159Z,1.70
2023-02-09T23:30:03.506Z,1.70
2023-02-09T23:32:52.474Z,1.70
2023-02-09T23:35:41.222Z,1.70
2023-02-09T23:38:29.872Z,1.70
2023-02-09T23:41:19.683Z,1.70
2023-02-09T23:44:08.466Z,1.70
2023-02-09T23:46:58.884Z,1.60
2023-02-09T23:49:47.571Z,1.60
2023-02-09T23:52:36.190Z,1.70
2023-02-09T23:55:24.915Z,1.70
2023-02-09T23:58:13.498Z,1.70
